sensor_id;sensor_type;location;lat;lon;timestamp;P1;durP1;ratioP1;P2;durP2;ratioP2
5833;SDS011;2943;48.012;10.968;2023-01-26T00:02:15;20.57;;;11.40;;
5833;SDS011;2943;48.012;10.968;2023-01-26T00:04:41;21.93;;;11.57;;
5833;SDS011;2943;48.012;10.968;2023-01-26T00:07:08;20.73;;;11.20;;
5833;SDS011;2943;48.012;10.968;2023-01-26T00:09:35;19.30;;;10.37;;
5833;SDS011;2943;48.012;10.968;2023-01-26T00:12:03;16.47;;;10.50;;
5833;SDS011;2943;48.012;10.968;2023-01-26T00:14:30;16.80;;;9.53;;
5833;SDS011;2943;48.012;10.968;2023-01-26T00:17:14;18.10;;;9.83;;
5833;SDS011;2943;48.012;10.968;2023-01-26T00:19:49;16.33;;;10.07;;
5833;SDS011;2943;48.012;10.968;2023-01-26T00:22:17;17.00;;;11.40;;
5833;SDS011;2943;48.012;10.968;2023-01-26T00:24:44;17.93;;;10.70;;
5833;SDS011;2943;48.012;10.968;2023-01-26T00:27:12;16.93;;;10.10;;
5833;SDS011;2943;48.012;10.968;2023-01-26T00:29:39;17.40;;;10.17;;
5833;SDS011;2943;48.012;10.968;2023-01-26T00:32:06;19.60;;;11.50;;
5833;SDS011;2943;48.012;10.968;2023-01-26T00:34:32;22.00;;;11.43;;
5833;SDS011;2943;48.012;10.968;2023-01-26T00:36:59;21.00;;;11.83;;
5833;SDS011;2943;48.012;10.968;2023-01-26T00:39:26;28.50;;;12.03;;
5833;SDS011;2943;48.012;10.968;2023-01-26T00:41:53;21.03;;;11.73;;
5833;SDS011;2943;48.012;10.968;2023-01-26T00:44:35;25.90;;;11.83;;
5833;SDS011;2943;48.012;10.968;2023-01-26T00:47:03;20.97;;;10.97;;
5833;SDS011;2943;48.012;10.968;2023-01-26T00:49:29;20.10;;;11.27;;
5833;SDS011;2943;48.012;10.968;2023-01-26T00:51:56;24.13;;;13.00;;
5833;SDS011;2943;48.012;10.968;2023-01-26T00:54:23;20.97;;;11.67;;
5833;SDS011;2943;48.012;10.968;2023-01-26T00:56:50;24.67;;;12.73;;
5833;SDS011;2943;48.012;10.968;2023-01-26T00:59:16;21.90;;;11.97;;
5833;SDS011;2943;48.012;10.968;2023-01-26T01:01:45;19.33;;;10.97;;
5833;SDS011;2943;48.012;10.968;2023-01-26T01:04:11;21.10;;;10.23;;
5833;SDS011;2943;48.012;10.968;2023-01-26T01:06:38;20.07;;;12.30;;
5833;SDS011;2943;48.012;10.968;2023-01-26T01:09:05;19.23;;;11.53;;
5833;SDS011;2943;48.012;10.968;2023-01-26T01:11:32;23.43;;;12.27;;
5833;SDS011;2943;48.012;10.968;2023-01-26T01:14:09;20.73;;;11.20;;
5833;SDS011;2943;48.012;10.968;2023-01-26T01:16:36;24.07;;;12.10;;
5833;SDS011;2943;48.012;10.968;2023-01-26T01:19:05;25.50;;;12.90;;
5833;SDS011;2943;48.012;10.968;2023-01-26T01:21:32;23.33;;;12.50;;
5833;SDS011;2943;48.012;10.968;2023-01-26T01:24:00;22.90;;;13.43;;
5833;SDS011;2943;48.012;10.968;2023-01-26T01:26:27;18.00;;;10.43;;
5833;SDS011;2943;48.012;10.968;2023-01-26T01:28:54;19.83;;;11.13;;
5833;SDS011;2943;48.012;10.968;2023-01-26T01:31:22;20.93;;;11.80;;
5833;SDS011;2943;48.012;10.968;2023-01-26T01:33:49;24.67;;;12.97;;
5833;SDS011;2943;48.012;10.968;2023-01-26T01:36:18;24.70;;;12.63;;
5833;SDS011;2943;48.012;10.968;2023-01-26T01:38:45;20.30;;;12.17;;
5833;SDS011;2943;48.012;10.968;2023-01-26T01:41:13;21.47;;;13.17;;
5833;SDS011;2943;48.012;10.968;2023-01-26T01:43:41;29.47;;;14.53;;
5833;SDS011;2943;48.012;10.968;2023-01-26T01:46:10;26.80;;;13.97;;
5833;SDS011;2943;48.012;10.968;2023-01-26T01:48:54;23.30;;;13.60;;
5833;SDS011;2943;48.012;10.968;2023-01-26T01:51:28;22.03;;;12.83;;
5833;SDS011;2943;48.012;10.968;2023-01-26T01:53:58;24.90;;;12.77;;
5833;SDS011;2943;48.012;10.968;2023-01-26T01:56:30;24.33;;;14.50;;
5833;SDS011;2943;48.012;10.968;2023-01-26T01:58:59;23.50;;;13.23;;
5833;SDS011;2943;48.012;10.968;2023-01-26T02:01:28;23.87;;;13.13;;
5833;SDS011;2943;48.012;10.968;2023-01-26T02:03:55;23.20;;;11.90;;
5833;SDS011;2943;48.012;10.968;2023-01-26T02:06:28;19.70;;;11.80;;
5833;SDS011;2943;48.012;10.968;2023-01-26T02:08:59;28.00;;;14.97;;
5833;SDS011;2943;48.012;10.968;2023-01-26T02:11:30;25.70;;;13.17;;
5833;SDS011;2943;48.012;10.968;2023-01-26T02:14:02;27.87;;;12.40;;
5833;SDS011;2943;48.012;10.968;2023-01-26T02:16:32;23.67;;;12.83;;
5833;SDS011;2943;48.012;10.968;2023-01-26T02:18:59;24.57;;;13.47;;
5833;SDS011;2943;48.012;10.968;2023-01-26T02:21:26;21.47;;;12.77;;
5833;SDS011;2943;48.012;10.968;2023-01-26T02:23:57;23.17;;;11.90;;
5833;SDS011;2943;48.012;10.968;2023-01-26T02:26:36;21.87;;;12.30;;
5833;SDS011;2943;48.012;10.968;2023-01-26T02:29:05;23.13;;;12.47;;
5833;SDS011;2943;48.012;10.968;2023-01-26T02:31:35;29.03;;;14.20;;
5833;SDS011;2943;48.012;10.968;2023-01-26T02:34:03;45.60;;;17.50;;
5833;SDS011;2943;48.012;10.968;2023-01-26T02:36:30;31.43;;;13.47;;
5833;SDS011;2943;48.012;10.968;2023-01-26T02:39:01;27.27;;;13.00;;
5833;SDS011;2943;48.012;10.968;2023-01-26T02:41:44;20.03;;;12.20;;
5833;SDS011;2943;48.012;10.968;2023-01-26T02:44:30;26.17;;;12.43;;
5833;SDS011;2943;48.012;10.968;2023-01-26T02:46:58;27.17;;;12.43;;
5833;SDS011;2943;48.012;10.968;2023-01-26T02:49:24;29.70;;;13.97;;
5833;SDS011;2943;48.012;10.968;2023-01-26T02:52:09;28.50;;;14.83;;
5833;SDS011;2943;48.012;10.968;2023-01-26T02:54:35;27.50;;;12.87;;
5833;SDS011;2943;48.012;10.968;2023-01-26T02:57:21;26.07;;;12.63;;
5833;SDS011;2943;48.012;10.968;2023-01-26T02:59:48;24.70;;;13.00;;
5833;SDS011;2943;48.012;10.968;2023-01-26T03:02:15;25.73;;;13.73;;
5833;SDS011;2943;48.012;10.968;2023-01-26T03:04:42;27.27;;;12.80;;
5833;SDS011;2943;48.012;10.968;2023-01-26T03:07:08;22.63;;;12.17;;
5833;SDS011;2943;48.012;10.968;2023-01-26T03:09:35;23.53;;;11.90;;
5833;SDS011;2943;48.012;10.968;2023-01-26T03:12:02;20.80;;;11.23;;
5833;SDS011;2943;48.012;10.968;2023-01-26T03:14:30;21.83;;;11.37;;
5833;SDS011;2943;48.012;10.968;2023-01-26T03:16:57;25.07;;;12.37;;
5833;SDS011;2943;48.012;10.968;2023-01-26T03:19:24;21.70;;;12.57;;
5833;SDS011;2943;48.012;10.968;2023-01-26T03:22:09;23.53;;;11.90;;
5833;SDS011;2943;48.012;10.968;2023-01-26T03:24:53;23.90;;;11.00;;
5833;SDS011;2943;48.012;10.968;2023-01-26T03:27:39;23.83;;;12.00;;
5833;SDS011;2943;48.012;10.968;2023-01-26T03:30:10;24.87;;;12.83;;
5833;SDS011;2943;48.012;10.968;2023-01-26T03:32:37;20.07;;;11.80;;
5833;SDS011;2943;48.012;10.968;2023-01-26T03:35:04;22.47;;;10.80;;
5833;SDS011;2943;48.012;10.968;2023-01-26T03:37:34;19.57;;;10.23;;
5833;SDS011;2943;48.012;10.968;2023-01-26T03:40:08;15.77;;;8.97;;
5833;SDS011;2943;48.012;10.968;2023-01-26T03:42:53;16.60;;;8.87;;
5833;SDS011;2943;48.012;10.968;2023-01-26T03:45:39;21.20;;;9.83;;
5833;SDS011;2943;48.012;10.968;2023-01-26T03:48:23;19.37;;;10.93;;
5833;SDS011;2943;48.012;10.968;2023-01-26T03:51:08;20.73;;;11.43;;
5833;SDS011;2943;48.012;10.968;2023-01-26T03:53:52;19.07;;;11.10;;
5833;SDS011;2943;48.012;10.968;2023-01-26T03:56:36;19.53;;;10.07;;
5833;SDS011;2943;48.012;10.968;2023-01-26T03:59:04;19.00;;;10.23;;
5833;SDS011;2943;48.012;10.968;2023-01-26T04:01:34;20.60;;;10.60;;
5833;SDS011;2943;48.012;10.968;2023-01-26T04:04:03;25.10;;;10.73;;
5833;SDS011;2943;48.012;10.968;2023-01-26T04:06:48;22.70;;;10.50;;
5833;SDS011;2943;48.012;10.968;2023-01-26T04:09:33;19.80;;;9.50;;
5833;SDS011;2943;48.012;10.968;2023-01-26T04:12:02;19.30;;;10.07;;
5833;SDS011;2943;48.012;10.968;2023-01-26T04:14:29;23.83;;;11.17;;
5833;SDS011;2943;48.012;10.968;2023-01-26T04:17:14;18.53;;;10.17;;
5833;SDS011;2943;48.012;10.968;2023-01-26T04:19:59;22.53;;;10.70;;
5833;SDS011;2943;48.012;10.968;2023-01-26T04:22:43;22.33;;;12.23;;
5833;SDS011;2943;48.012;10.968;2023-01-26T04:25:11;22.37;;;12.03;;
5833;SDS011;2943;48.012;10.968;2023-01-26T04:27:39;24.50;;;11.10;;
5833;SDS011;2943;48.012;10.968;2023-01-26T04:30:08;23.40;;;11.73;;
5833;SDS011;2943;48.012;10.968;2023-01-26T04:32:38;23.27;;;11.63;;
5833;SDS011;2943;48.012;10.968;2023-01-26T04:35:05;22.20;;;12.00;;
5833;SDS011;2943;48.012;10.968;2023-01-26T04:37:33;23.90;;;13.30;;
5833;SDS011;2943;48.012;10.968;2023-01-26T04:40:01;24.53;;;12.53;;
5833;SDS011;2943;48.012;10.968;2023-01-26T04:42:28;25.57;;;11.63;;
5833;SDS011;2943;48.012;10.968;2023-01-26T04:44:55;28.90;;;12.63;;
5833;SDS011;2943;48.012;10.968;2023-01-26T04:47:22;22.83;;;10.70;;
5833;SDS011;2943;48.012;10.968;2023-01-26T04:49:50;19.57;;;10.90;;
5833;SDS011;2943;48.012;10.968;2023-01-26T04:52:17;23.37;;;11.40;;
5833;SDS011;2943;48.012;10.968;2023-01-26T04:54:45;24.83;;;11.27;;
5833;SDS011;2943;48.012;10.968;2023-01-26T04:57:12;19.70;;;10.73;;
5833;SDS011;2943;48.012;10.968;2023-01-26T04:59:39;23.60;;;11.63;;
5833;SDS011;2943;48.012;10.968;2023-01-26T05:02:06;22.57;;;12.03;;
5833;SDS011;2943;48.012;10.968;2023-01-26T05:04:32;26.47;;;12.77;;
5833;SDS011;2943;48.012;10.968;2023-01-26T05:07:00;29.27;;;13.00;;
5833;SDS011;2943;48.012;10.968;2023-01-26T05:09:27;25.03;;;12.03;;
5833;SDS011;2943;48.012;10.968;2023-01-26T05:11:54;23.20;;;11.93;;
5833;SDS011;2943;48.012;10.968;2023-01-26T05:14:41;23.93;;;11.67;;
5833;SDS011;2943;48.012;10.968;2023-01-26T05:17:08;20.03;;;11.13;;
5833;SDS011;2943;48.012;10.968;2023-01-26T05:19:34;19.60;;;11.20;;
5833;SDS011;2943;48.012;10.968;2023-01-26T05:22:02;27.00;;;10.67;;
5833;SDS011;2943;48.012;10.968;2023-01-26T05:24:29;25.67;;;13.20;;
5833;SDS011;2943;48.012;10.968;2023-01-26T05:26:56;20.67;;;11.43;;
5833;SDS011;2943;48.012;10.968;2023-01-26T05:29:37;20.17;;;11.43;;
5833;SDS011;2943;48.012;10.968;2023-01-26T05:32:04;24.43;;;11.87;;
5833;SDS011;2943;48.012;10.968;2023-01-26T05:34:31;26.00;;;12.40;;
5833;SDS011;2943;48.012;10.968;2023-01-26T05:36:57;24.00;;;10.80;;
5833;SDS011;2943;48.012;10.968;2023-01-26T05:39:26;23.30;;;11.87;;
5833;SDS011;2943;48.012;10.968;2023-01-26T05:41:52;19.60;;;9.73;;
5833;SDS011;2943;48.012;10.968;2023-01-26T05:44:20;20.50;;;10.30;;
5833;SDS011;2943;48.012;10.968;2023-01-26T05:46:47;17.07;;;9.67;;
5833;SDS011;2943;48.012;10.968;2023-01-26T05:49:14;19.63;;;11.07;;
5833;SDS011;2943;48.012;10.968;2023-01-26T05:51:41;15.93;;;9.27;;
5833;SDS011;2943;48.012;10.968;2023-01-26T05:54:08;18.07;;;10.33;;
5833;SDS011;2943;48.012;10.968;2023-01-26T05:56:36;20.87;;;10.40;;
5833;SDS011;2943;48.012;10.968;2023-01-26T05:59:03;22.10;;;11.47;;
5833;SDS011;2943;48.012;10.968;2023-01-26T06:01:30;26.57;;;10.97;;
5833;SDS011;2943;48.012;10.968;2023-01-26T06:04:00;19.97;;;10.30;;
5833;SDS011;2943;48.012;10.968;2023-01-26T06:06:29;23.23;;;12.20;;
5833;SDS011;2943;48.012;10.968;2023-01-26T06:09:02;18.60;;;10.53;;
5833;SDS011;2943;48.012;10.968;2023-01-26T06:11:33;17.50;;;9.80;;
5833;SDS011;2943;48.012;10.968;2023-01-26T06:14:02;18.80;;;10.13;;
5833;SDS011;2943;48.012;10.968;2023-01-26T06:16:29;20.07;;;10.70;;
5833;SDS011;2943;48.012;10.968;2023-01-26T06:18:56;20.90;;;11.67;;
5833;SDS011;2943;48.012;10.968;2023-01-26T06:21:23;17.73;;;9.50;;
5833;SDS011;2943;48.012;10.968;2023-01-26T06:23:50;20.50;;;9.77;;
5833;SDS011;2943;48.012;10.968;2023-01-26T06:26:17;17.40;;;10.47;;
5833;SDS011;2943;48.012;10.968;2023-01-26T06:28:44;18.43;;;9.00;;
5833;SDS011;2943;48.012;10.968;2023-01-26T06:31:12;18.50;;;9.50;;
5833;SDS011;2943;48.012;10.968;2023-01-26T06:33:39;17.80;;;9.43;;
5833;SDS011;2943;48.012;10.968;2023-01-26T06:36:06;15.87;;;9.07;;
5833;SDS011;2943;48.012;10.968;2023-01-26T06:38:35;17.27;;;8.93;;
5833;SDS011;2943;48.012;10.968;2023-01-26T06:41:03;17.13;;;9.30;;
5833;SDS011;2943;48.012;10.968;2023-01-26T06:43:33;16.13;;;8.83;;
5833;SDS011;2943;48.012;10.968;2023-01-26T06:46:00;17.57;;;9.07;;
5833;SDS011;2943;48.012;10.968;2023-01-26T06:48:29;16.73;;;9.50;;
5833;SDS011;2943;48.012;10.968;2023-01-26T06:51:02;21.90;;;9.03;;
5833;SDS011;2943;48.012;10.968;2023-01-26T06:53:33;16.07;;;9.30;;
5833;SDS011;2943;48.012;10.968;2023-01-26T06:56:03;17.00;;;9.30;;
5833;SDS011;2943;48.012;10.968;2023-01-26T06:58:29;18.67;;;9.97;;
5833;SDS011;2943;48.012;10.968;2023-01-26T07:00:56;17.20;;;9.73;;
5833;SDS011;2943;48.012;10.968;2023-01-26T07:03:23;18.57;;;9.83;;
5833;SDS011;2943;48.012;10.968;2023-01-26T07:05:52;21.30;;;10.20;;
5833;SDS011;2943;48.012;10.968;2023-01-26T07:08:19;22.67;;;10.43;;
5833;SDS011;2943;48.012;10.968;2023-01-26T07:10:46;16.60;;;9.60;;
5833;SDS011;2943;48.012;10.968;2023-01-26T07:13:14;21.60;;;11.30;;
5833;SDS011;2943;48.012;10.968;2023-01-26T07:15:40;19.00;;;10.50;;
5833;SDS011;2943;48.012;10.968;2023-01-26T07:18:07;21.50;;;11.53;;
5833;SDS011;2943;48.012;10.968;2023-01-26T07:20:34;20.20;;;11.17;;
5833;SDS011;2943;48.012;10.968;2023-01-26T07:23:03;20.80;;;10.80;;
5833;SDS011;2943;48.012;10.968;2023-01-26T07:25:30;18.10;;;10.07;;
5833;SDS011;2943;48.012;10.968;2023-01-26T07:27:57;19.70;;;10.83;;
5833;SDS011;2943;48.012;10.968;2023-01-26T07:30:24;16.53;;;9.30;;
5833;SDS011;2943;48.012;10.968;2023-01-26T07:32:51;20.00;;;10.20;;
5833;SDS011;2943;48.012;10.968;2023-01-26T07:35:18;17.23;;;9.37;;
5833;SDS011;2943;48.012;10.968;2023-01-26T07:37:44;26.70;;;11.90;;
5833;SDS011;2943;48.012;10.968;2023-01-26T07:40:21;17.40;;;9.80;;
5833;SDS011;2943;48.012;10.968;2023-01-26T07:42:48;24.50;;;11.40;;
5833;SDS011;2943;48.012;10.968;2023-01-26T07:45:15;22.00;;;10.10;;
5833;SDS011;2943;48.012;10.968;2023-01-26T07:47:42;19.53;;;10.30;;
5833;SDS011;2943;48.012;10.968;2023-01-26T07:50:09;17.73;;;9.13;;
5833;SDS011;2943;48.012;10.968;2023-01-26T07:52:37;19.73;;;11.40;;
5833;SDS011;2943;48.012;10.968;2023-01-26T07:55:04;28.33;;;11.80;;
5833;SDS011;2943;48.012;10.968;2023-01-26T07:57:32;21.57;;;10.63;;
5833;SDS011;2943;48.012;10.968;2023-01-26T07:59:59;19.57;;;11.10;;
5833;SDS011;2943;48.012;10.968;2023-01-26T08:02:26;27.40;;;13.48;;
5833;SDS011;2943;48.012;10.968;2023-01-26T08:04:52;30.83;;;13.13;;
5833;SDS011;2943;48.012;10.968;2023-01-26T08:07:19;26.50;;;12.70;;
5833;SDS011;2943;48.012;10.968;2023-01-26T08:09:46;19.60;;;11.00;;
5833;SDS011;2943;48.012;10.968;2023-01-26T08:12:12;20.70;;;12.10;;
5833;SDS011;2943;48.012;10.968;2023-01-26T08:14:40;19.00;;;11.60;;
5833;SDS011;2943;48.012;10.968;2023-01-26T08:17:07;18.37;;;10.93;;
5833;SDS011;2943;48.012;10.968;2023-01-26T08:19:34;20.10;;;10.70;;
5833;SDS011;2943;48.012;10.968;2023-01-26T08:22:01;19.40;;;10.60;;
5833;SDS011;2943;48.012;10.968;2023-01-26T08:24:27;24.30;;;11.67;;
5833;SDS011;2943;48.012;10.968;2023-01-26T08:26:54;20.73;;;10.00;;
5833;SDS011;2943;48.012;10.968;2023-01-26T08:29:21;17.80;;;10.63;;
5833;SDS011;2943;48.012;10.968;2023-01-26T08:31:49;18.27;;;9.37;;
5833;SDS011;2943;48.012;10.968;2023-01-26T08:34:16;22.17;;;10.53;;
5833;SDS011;2943;48.012;10.968;2023-01-26T08:36:43;19.23;;;10.60;;
5833;SDS011;2943;48.012;10.968;2023-01-26T08:39:12;18.73;;;10.97;;
5833;SDS011;2943;48.012;10.968;2023-01-26T08:41:39;19.33;;;11.00;;
5833;SDS011;2943;48.012;10.968;2023-01-26T08:44:06;21.50;;;10.00;;
5833;SDS011;2943;48.012;10.968;2023-01-26T08:46:34;27.10;;;13.80;;
5833;SDS011;2943;48.012;10.968;2023-01-26T08:49:03;26.50;;;14.77;;
5833;SDS011;2943;48.012;10.968;2023-01-26T08:51:30;26.37;;;14.60;;
5833;SDS011;2943;48.012;10.968;2023-01-26T08:53:57;26.57;;;12.83;;
5833;SDS011;2943;48.012;10.968;2023-01-26T08:56:23;23.20;;;11.83;;
5833;SDS011;2943;48.012;10.968;2023-01-26T08:58:50;19.80;;;11.03;;
5833;SDS011;2943;48.012;10.968;2023-01-26T09:01:17;21.57;;;11.73;;
5833;SDS011;2943;48.012;10.968;2023-01-26T09:03:44;25.43;;;11.83;;
5833;SDS011;2943;48.012;10.968;2023-01-26T09:06:12;23.90;;;12.57;;
5833;SDS011;2943;48.012;10.968;2023-01-26T09:08:39;22.17;;;11.70;;
5833;SDS011;2943;48.012;10.968;2023-01-26T09:11:07;22.97;;;11.17;;
5833;SDS011;2943;48.012;10.968;2023-01-26T09:13:34;24.50;;;11.83;;
5833;SDS011;2943;48.012;10.968;2023-01-26T09:16:03;20.67;;;11.47;;
5833;SDS011;2943;48.012;10.968;2023-01-26T09:18:39;21.23;;;11.03;;
5833;SDS011;2943;48.012;10.968;2023-01-26T09:21:07;23.10;;;12.70;;
5833;SDS011;2943;48.012;10.968;2023-01-26T09:23:35;19.60;;;10.53;;
5833;SDS011;2943;48.012;10.968;2023-01-26T09:26:02;23.37;;;10.97;;
5833;SDS011;2943;48.012;10.968;2023-01-26T09:28:29;22.20;;;12.87;;
5833;SDS011;2943;48.012;10.968;2023-01-26T09:30:56;20.67;;;10.87;;
5833;SDS011;2943;48.012;10.968;2023-01-26T09:33:23;24.40;;;12.37;;
5833;SDS011;2943;48.012;10.968;2023-01-26T09:35:50;28.97;;;12.80;;
5833;SDS011;2943;48.012;10.968;2023-01-26T09:38:17;21.10;;;11.10;;
5833;SDS011;2943;48.012;10.968;2023-01-26T09:40:47;22.27;;;11.67;;
5833;SDS011;2943;48.012;10.968;2023-01-26T09:43:24;24.23;;;12.33;;
5833;SDS011;2943;48.012;10.968;2023-01-26T09:46:00;25.83;;;13.13;;
5833;SDS011;2943;48.012;10.968;2023-01-26T09:48:40;26.13;;;14.07;;
5833;SDS011;2943;48.012;10.968;2023-01-26T09:51:15;32.87;;;13.70;;
5833;SDS011;2943;48.012;10.968;2023-01-26T09:53:54;35.83;;;16.33;;
5833;SDS011;2943;48.012;10.968;2023-01-26T09:56:26;22.70;;;12.17;;
5833;SDS011;2943;48.012;10.968;2023-01-26T09:58:57;29.07;;;13.47;;
5833;SDS011;2943;48.012;10.968;2023-01-26T10:01:30;23.13;;;12.70;;
5833;SDS011;2943;48.012;10.968;2023-01-26T10:04:04;30.07;;;13.70;;
5833;SDS011;2943;48.012;10.968;2023-01-26T10:06:39;32.13;;;14.63;;
5833;SDS011;2943;48.012;10.968;2023-01-26T10:09:11;32.73;;;14.50;;
5833;SDS011;2943;48.012;10.968;2023-01-26T10:11:43;35.03;;;15.43;;
5833;SDS011;2943;48.012;10.968;2023-01-26T10:14:13;28.57;;;13.70;;
5833;SDS011;2943;48.012;10.968;2023-01-26T10:16:44;27.43;;;14.07;;
5833;SDS011;2943;48.012;10.968;2023-01-26T10:19:15;29.40;;;13.80;;
5833;SDS011;2943;48.012;10.968;2023-01-26T10:21:47;29.80;;;14.17;;
5833;SDS011;2943;48.012;10.968;2023-01-26T10:24:17;23.40;;;12.10;;
5833;SDS011;2943;48.012;10.968;2023-01-26T10:26:48;29.80;;;13.60;;
5833;SDS011;2943;48.012;10.968;2023-01-26T10:29:25;35.10;;;16.47;;
5833;SDS011;2943;48.012;10.968;2023-01-26T10:31:52;31.10;;;13.70;;
5833;SDS011;2943;48.012;10.968;2023-01-26T10:34:21;27.50;;;11.70;;
5833;SDS011;2943;48.012;10.968;2023-01-26T10:36:49;22.17;;;11.97;;
5833;SDS011;2943;48.012;10.968;2023-01-26T10:39:21;21.70;;;10.00;;
5833;SDS011;2943;48.012;10.968;2023-01-26T10:41:56;23.37;;;11.37;;
5833;SDS011;2943;48.012;10.968;2023-01-26T10:44:28;27.33;;;11.20;;
5833;SDS011;2943;48.012;10.968;2023-01-26T10:47:01;27.20;;;11.00;;
5833;SDS011;2943;48.012;10.968;2023-01-26T10:49:30;26.43;;;12.00;;
5833;SDS011;2943;48.012;10.968;2023-01-26T10:52:04;22.13;;;11.97;;
5833;SDS011;2943;48.012;10.968;2023-01-26T10:54:32;25.83;;;10.60;;
5833;SDS011;2943;48.012;10.968;2023-01-26T10:57:03;25.93;;;11.40;;
5833;SDS011;2943;48.012;10.968;2023-01-26T10:59:38;26.27;;;11.10;;
5833;SDS011;2943;48.012;10.968;2023-01-26T11:02:20;22.77;;;12.97;;
5833;SDS011;2943;48.012;10.968;2023-01-26T11:05:01;20.70;;;9.60;;
5833;SDS011;2943;48.012;10.968;2023-01-26T11:07:43;26.20;;;12.03;;
5833;SDS011;2943;48.012;10.968;2023-01-26T11:10:22;24.77;;;11.70;;
5833;SDS011;2943;48.012;10.968;2023-01-26T11:13:05;19.87;;;10.50;;
5833;SDS011;2943;48.012;10.968;2023-01-26T11:15:37;20.47;;;11.80;;
5833;SDS011;2943;48.012;10.968;2023-01-26T11:18:09;21.23;;;10.33;;
5833;SDS011;2943;48.012;10.968;2023-01-26T11:20:48;20.37;;;11.60;;
5833;SDS011;2943;48.012;10.968;2023-01-26T11:23:23;18.63;;;10.13;;
5833;SDS011;2943;48.012;10.968;2023-01-26T11:26:07;17.87;;;9.03;;
5833;SDS011;2943;48.012;10.968;2023-01-26T11:29:16;17.63;;;8.00;;
5833;SDS011;2943;48.012;10.968;2023-01-26T11:32:12;19.10;;;9.60;;
5833;SDS011;2943;48.012;10.968;2023-01-26T11:34:49;22.33;;;9.70;;
5833;SDS011;2943;48.012;10.968;2023-01-26T11:37:31;15.03;;;8.63;;
5833;SDS011;2943;48.012;10.968;2023-01-26T11:40:11;15.03;;;9.17;;
5833;SDS011;2943;48.012;10.968;2023-01-26T11:42:49;17.87;;;10.33;;
5833;SDS011;2943;48.012;10.968;2023-01-26T11:45:40;16.57;;;8.37;;
5833;SDS011;2943;48.012;10.968;2023-01-26T11:48:20;13.93;;;8.50;;
5833;SDS011;2943;48.012;10.968;2023-01-26T11:50:54;16.43;;;8.30;;
5833;SDS011;2943;48.012;10.968;2023-01-26T11:53:31;14.73;;;7.93;;
5833;SDS011;2943;48.012;10.968;2023-01-26T11:56:15;17.17;;;8.53;;
5833;SDS011;2943;48.012;10.968;2023-01-26T11:58:50;20.23;;;9.73;;
5833;SDS011;2943;48.012;10.968;2023-01-26T12:01:22;16.80;;;8.67;;
5833;SDS011;2943;48.012;10.968;2023-01-26T12:03:54;42.93;;;15.80;;
5833;SDS011;2943;48.012;10.968;2023-01-26T12:06:27;24.50;;;12.97;;
5833;SDS011;2943;48.012;10.968;2023-01-26T12:09:01;25.67;;;14.07;;
5833;SDS011;2943;48.012;10.968;2023-01-26T12:11:36;17.90;;;9.80;;
5833;SDS011;2943;48.012;10.968;2023-01-26T12:14:11;16.77;;;9.30;;
5833;SDS011;2943;48.012;10.968;2023-01-26T12:16:48;14.40;;;8.17;;
5833;SDS011;2943;48.012;10.968;2023-01-26T12:19:33;17.83;;;9.50;;
5833;SDS011;2943;48.012;10.968;2023-01-26T12:22:10;16.67;;;9.30;;
5833;SDS011;2943;48.012;10.968;2023-01-26T12:24:42;19.00;;;9.63;;
5833;SDS011;2943;48.012;10.968;2023-01-26T12:27:14;16.07;;;9.10;;
5833;SDS011;2943;48.012;10.968;2023-01-26T12:29:48;18.00;;;9.17;;
5833;SDS011;2943;48.012;10.968;2023-01-26T12:32:21;16.53;;;9.10;;
5833;SDS011;2943;48.012;10.968;2023-01-26T12:34:48;14.63;;;9.50;;
5833;SDS011;2943;48.012;10.968;2023-01-26T12:37:27;13.50;;;7.73;;
5833;SDS011;2943;48.012;10.968;2023-01-26T12:40:14;14.03;;;8.40;;
5833;SDS011;2943;48.012;10.968;2023-01-26T12:42:56;15.57;;;7.63;;
5833;SDS011;2943;48.012;10.968;2023-01-26T12:45:32;10.60;;;6.90;;
5833;SDS011;2943;48.012;10.968;2023-01-26T12:48:06;13.17;;;7.90;;
5833;SDS011;2943;48.012;10.968;2023-01-26T12:50:38;16.27;;;8.23;;
5833;SDS011;2943;48.012;10.968;2023-01-26T12:53:10;14.63;;;8.27;;
5833;SDS011;2943;48.012;10.968;2023-01-26T12:55:41;13.73;;;8.37;;
5833;SDS011;2943;48.012;10.968;2023-01-26T12:58:12;15.57;;;9.00;;
5833;SDS011;2943;48.012;10.968;2023-01-26T13:00:49;16.93;;;7.70;;
5833;SDS011;2943;48.012;10.968;2023-01-26T13:03:20;18.43;;;9.30;;
5833;SDS011;2943;48.012;10.968;2023-01-26T13:05:55;14.50;;;7.97;;
5833;SDS011;2943;48.012;10.968;2023-01-26T13:08:40;14.80;;;7.73;;
5833;SDS011;2943;48.012;10.968;2023-01-26T13:14:23;12.73;;;7.83;;
5833;SDS011;2943;48.012;10.968;2023-01-26T13:16:51;14.00;;;8.03;;
5833;SDS011;2943;48.012;10.968;2023-01-26T13:19:35;12.53;;;7.33;;
5833;SDS011;2943;48.012;10.968;2023-01-26T13:22:36;15.77;;;8.10;;
5833;SDS011;2943;48.012;10.968;2023-01-26T13:25:11;15.27;;;6.97;;
5833;SDS011;2943;48.012;10.968;2023-01-26T13:27:43;14.83;;;6.77;;
5833;SDS011;2943;48.012;10.968;2023-01-26T13:30:28;16.40;;;8.43;;
5833;SDS011;2943;48.012;10.968;2023-01-26T13:35:54;13.67;;;8.07;;
5833;SDS011;2943;48.012;10.968;2023-01-26T13:38:26;14.17;;;8.40;;
5833;SDS011;2943;48.012;10.968;2023-01-26T13:40:58;14.17;;;7.93;;
5833;SDS011;2943;48.012;10.968;2023-01-26T13:43:32;13.63;;;8.27;;
5833;SDS011;2943;48.012;10.968;2023-01-26T13:46:14;13.20;;;7.87;;
5833;SDS011;2943;48.012;10.968;2023-01-26T13:48:47;14.70;;;8.00;;
5833;SDS011;2943;48.012;10.968;2023-01-26T13:51:17;13.77;;;9.20;;
5833;SDS011;2943;48.012;10.968;2023-01-26T13:56:30;15.10;;;8.77;;
5833;SDS011;2943;48.012;10.968;2023-01-26T13:59:03;16.57;;;7.83;;
5833;SDS011;2943;48.012;10.968;2023-01-26T14:01:31;15.60;;;8.20;;
5833;SDS011;2943;48.012;10.968;2023-01-26T14:04:02;19.60;;;8.63;;
5833;SDS011;2943;48.012;10.968;2023-01-26T14:06:32;14.17;;;8.73;;
5833;SDS011;2943;48.012;10.968;2023-01-26T14:09:01;19.33;;;10.17;;
5833;SDS011;2943;48.012;10.968;2023-01-26T14:11:31;15.67;;;9.43;;
5833;SDS011;2943;48.012;10.968;2023-01-26T14:13:59;17.73;;;10.03;;
5833;SDS011;2943;48.012;10.968;2023-01-26T14:16:27;19.13;;;8.67;;
5833;SDS011;2943;48.012;10.968;2023-01-26T14:19:11;22.17;;;10.23;;
5833;SDS011;2943;48.012;10.968;2023-01-26T14:21:48;22.57;;;11.10;;
5833;SDS011;2943;48.012;10.968;2023-01-26T14:24:17;19.30;;;10.27;;
5833;SDS011;2943;48.012;10.968;2023-01-26T14:26:49;19.50;;;9.90;;
5833;SDS011;2943;48.012;10.968;2023-01-26T14:29:18;17.70;;;8.97;;
5833;SDS011;2943;48.012;10.968;2023-01-26T14:31:47;17.80;;;7.53;;
5833;SDS011;2943;48.012;10.968;2023-01-26T14:34:18;17.93;;;8.10;;
5833;SDS011;2943;48.012;10.968;2023-01-26T14:36:47;15.23;;;8.20;;
5833;SDS011;2943;48.012;10.968;2023-01-26T14:39:29;11.93;;;6.80;;
5833;SDS011;2943;48.012;10.968;2023-01-26T14:41:55;15.43;;;8.57;;
5833;SDS011;2943;48.012;10.968;2023-01-26T14:44:23;14.60;;;8.00;;
5833;SDS011;2943;48.012;10.968;2023-01-26T14:46:51;15.03;;;8.10;;
5833;SDS011;2943;48.012;10.968;2023-01-26T14:49:23;15.53;;;7.97;;
5833;SDS011;2943;48.012;10.968;2023-01-26T14:51:59;16.60;;;9.30;;
5833;SDS011;2943;48.012;10.968;2023-01-26T14:54:27;16.60;;;8.87;;
5833;SDS011;2943;48.012;10.968;2023-01-26T14:56:56;16.10;;;9.10;;
5833;SDS011;2943;48.012;10.968;2023-01-26T14:59:24;19.87;;;8.83;;
5833;SDS011;2943;48.012;10.968;2023-01-26T15:02:03;20.10;;;9.63;;
5833;SDS011;2943;48.012;10.968;2023-01-26T15:04:39;16.77;;;8.50;;
5833;SDS011;2943;48.012;10.968;2023-01-26T15:07:27;23.67;;;10.23;;
5833;SDS011;2943;48.012;10.968;2023-01-26T15:09:58;23.33;;;11.00;;
5833;SDS011;2943;48.012;10.968;2023-01-26T15:12:25;19.50;;;10.80;;